sensor_id;sensor_type;location;lat;lon;timestamp;P1;durP1;ratioP1;P2;durP2;ratioP2
5612;SDS011;63463;53.586;9.928;2023-06-14T00:00:39;5.90;;;4.30;;
5612;SDS011;63463;53.586;9.928;2023-06-14T00:03:09;6.00;;;4.33;;
5612;SDS011;63463;53.586;9.928;2023-06-14T00:05:43;5.50;;;3.93;;
5612;SDS011;63463;53.586;9.928;2023-06-14T00:08:09;5.03;;;4.00;;
5612;SDS011;63463;53.586;9.928;2023-06-14T00:10:36;12.70;;;5.20;;
5612;SDS011;63463;53.586;9.928;2023-06-14T00:13:02;6.80;;;4.83;;
5612;SDS011;63463;53.586;9.928;2023-06-14T00:15:33;6.43;;;4.63;;
5612;SDS011;63463;53.586;9.928;2023-06-14T00:18:00;4.50;;;4.07;;
5612;SDS011;63463;53.586;9.928;2023-06-14T00:20:31;4.93;;;4.17;;
5612;SDS011;63463;53.586;9.928;2023-06-14T00:23:01;5.30;;;4.70;;
5612;SDS011;63463;53.586;9.928;2023-06-14T00:25:33;6.00;;;4.80;;
5612;SDS011;63463;53.586;9.928;2023-06-14T00:28:02;4.80;;;4.00;;
5612;SDS011;63463;53.586;9.928;2023-06-14T00:30:39;6.53;;;4.23;;
5612;SDS011;63463;53.586;9.928;2023-06-14T00:33:07;7.67;;;5.27;;
5612;SDS011;63463;53.586;9.928;2023-06-14T00:35:33;5.03;;;4.27;;
5612;SDS011;63463;53.586;9.928;2023-06-14T00:38:01;9.10;;;4.53;;
5612;SDS011;63463;53.586;9.928;2023-06-14T00:40:33;12.20;;;4.67;;
5612;SDS011;63463;53.586;9.928;2023-06-14T00:43:02;10.70;;;4.50;;
5612;SDS011;63463;53.586;9.928;2023-06-14T00:45:28;14.63;;;4.37;;
5612;SDS011;63463;53.586;9.928;2023-06-14T00:48:00;10.17;;;5.23;;
5612;SDS011;63463;53.586;9.928;2023-06-14T00:50:27;5.67;;;4.53;;
5612;SDS011;63463;53.586;9.928;2023-06-14T00:52:54;9.40;;;5.40;;
5612;SDS011;63463;53.586;9.928;2023-06-14T00:55:20;5.40;;;4.57;;
5612;SDS011;63463;53.586;9.928;2023-06-14T00:57:47;8.90;;;4.70;;
5612;SDS011;63463;53.586;9.928;2023-06-14T01:00:14;10.90;;;4.53;;
5612;SDS011;63463;53.586;9.928;2023-06-14T01:02:47;4.70;;;4.40;;
5612;SDS011;63463;53.586;9.928;2023-06-14T01:05:16;13.03;;;4.93;;
5612;SDS011;63463;53.586;9.928;2023-06-14T01:15:54;8.53;;;4.77;;
5612;SDS011;63463;53.586;9.928;2023-06-14T01:18:37;8.60;;;4.80;;
5612;SDS011;63463;53.586;9.928;2023-06-14T01:21:03;5.00;;;4.50;;
5612;SDS011;63463;53.586;9.928;2023-06-14T01:23:33;4.93;;;4.40;;
5612;SDS011;63463;53.586;9.928;2023-06-14T01:25:59;7.50;;;5.50;;
5612;SDS011;63463;53.586;9.928;2023-06-14T01:28:29;7.83;;;4.77;;
5612;SDS011;63463;53.586;9.928;2023-06-14T01:30:57;30.07;;;5.60;;
5612;SDS011;63463;53.586;9.928;2023-06-14T01:33:26;7.97;;;4.70;;
5612;SDS011;63463;53.586;9.928;2023-06-14T01:35:53;10.53;;;4.60;;
5612;SDS011;63463;53.586;9.928;2023-06-14T01:38:21;11.73;;;5.27;;
5612;SDS011;63463;53.586;9.928;2023-06-14T01:40:48;5.17;;;4.53;;
5612;SDS011;63463;53.586;9.928;2023-06-14T01:43:32;7.73;;;4.90;;
5612;SDS011;63463;53.586;9.928;2023-06-14T01:46:11;10.90;;;4.63;;
5612;SDS011;63463;53.586;9.928;2023-06-14T01:48:38;10.67;;;5.13;;
5612;SDS011;63463;53.586;9.928;2023-06-14T01:51:04;7.77;;;5.13;;
5612;SDS011;63463;53.586;9.928;2023-06-14T01:53:30;9.13;;;4.77;;
5612;SDS011;63463;53.586;9.928;2023-06-14T01:55:59;4.53;;;4.17;;
5612;SDS011;63463;53.586;9.928;2023-06-14T01:58:29;6.30;;;4.43;;
5612;SDS011;63463;53.586;9.928;2023-06-14T02:00:59;11.30;;;5.00;;
5612;SDS011;63463;53.586;9.928;2023-06-14T02:03:28;22.17;;;5.10;;
5612;SDS011;63463;53.586;9.928;2023-06-14T02:05:55;32.27;;;5.53;;
5612;SDS011;63463;53.586;9.928;2023-06-14T02:08:21;6.77;;;5.00;;
5612;SDS011;63463;53.586;9.928;2023-06-14T02:10:49;15.20;;;5.30;;
5612;SDS011;63463;53.586;9.928;2023-06-14T02:13:15;32.07;;;5.43;;
5612;SDS011;63463;53.586;9.928;2023-06-14T02:15:44;7.60;;;4.90;;
5612;SDS011;63463;53.586;9.928;2023-06-14T02:18:11;11.40;;;4.70;;
5612;SDS011;63463;53.586;9.928;2023-06-14T02:20:39;7.80;;;5.10;;
5612;SDS011;63463;53.586;9.928;2023-06-14T02:23:05;8.00;;;5.23;;
5612;SDS011;63463;53.586;9.928;2023-06-14T02:25:33;5.93;;;4.80;;
5612;SDS011;63463;53.586;9.928;2023-06-14T02:28:02;11.20;;;4.73;;
5612;SDS011;63463;53.586;9.928;2023-06-14T02:30:31;5.93;;;4.60;;
5612;SDS011;63463;53.586;9.928;2023-06-14T02:32:59;5.53;;;4.63;;
5612;SDS011;63463;53.586;9.928;2023-06-14T02:35:30;5.60;;;5.10;;
5612;SDS011;63463;53.586;9.928;2023-06-14T02:37:56;5.93;;;4.70;;
5612;SDS011;63463;53.586;9.928;2023-06-14T02:40:26;5.50;;;5.00;;
5612;SDS011;63463;53.586;9.928;2023-06-14T02:42:54;9.30;;;5.70;;
5612;SDS011;63463;53.586;9.928;2023-06-14T02:45:20;5.67;;;5.07;;
5612;SDS011;63463;53.586;9.928;2023-06-14T02:47:49;5.27;;;4.70;;
5612;SDS011;63463;53.586;9.928;2023-06-14T02:50:31;8.70;;;5.13;;
5612;SDS011;63463;53.586;9.928;2023-06-14T02:53:07;9.40;;;5.37;;
5612;SDS011;63463;53.586;9.928;2023-06-14T02:55:33;10.03;;;5.07;;
5612;SDS011;63463;53.586;9.928;2023-06-14T02:58:06;5.37;;;4.90;;
5612;SDS011;63463;53.586;9.928;2023-06-14T03:00:47;6.23;;;4.73;;
5612;SDS011;63463;53.586;9.928;2023-06-14T03:03:13;10.43;;;5.70;;
5612;SDS011;63463;53.586;9.928;2023-06-14T03:05:43;10.30;;;5.07;;
5612;SDS011;63463;53.586;9.928;2023-06-14T03:08:13;5.43;;;4.87;;
5612;SDS011;63463;53.586;9.928;2023-06-14T03:10:43;11.67;;;5.30;;
5612;SDS011;63463;53.586;9.928;2023-06-14T03:13:15;8.13;;;5.30;;
5612;SDS011;63463;53.586;9.928;2023-06-14T03:15:46;17.07;;;5.07;;
5612;SDS011;63463;53.586;9.928;2023-06-14T03:18:12;10.80;;;5.03;;
5612;SDS011;63463;53.586;9.928;2023-06-14T03:20:41;7.37;;;5.23;;
5612;SDS011;63463;53.586;9.928;2023-06-14T03:23:10;9.03;;;5.20;;
5612;SDS011;63463;53.586;9.928;2023-06-14T03:25:37;6.00;;;5.40;;
5612;SDS011;63463;53.586;9.928;2023-06-14T03:28:07;6.57;;;5.87;;
5612;SDS011;63463;53.586;9.928;2023-06-14T03:30:35;7.53;;;5.50;;
5612;SDS011;63463;53.586;9.928;2023-06-14T03:33:01;6.30;;;5.47;;
5612;SDS011;63463;53.586;9.928;2023-06-14T03:35:55;9.60;;;5.13;;
5612;SDS011;63463;53.586;9.928;2023-06-14T03:38:26;6.70;;;5.47;;
5612;SDS011;63463;53.586;9.928;2023-06-14T03:40:57;5.37;;;4.87;;
5612;SDS011;63463;53.586;9.928;2023-06-14T03:43:30;8.97;;;5.70;;
5612;SDS011;63463;53.586;9.928;2023-06-14T03:45:56;8.50;;;5.70;;
5612;SDS011;63463;53.586;9.928;2023-06-14T03:48:25;8.07;;;5.30;;
5612;SDS011;63463;53.586;9.928;2023-06-14T03:50:51;7.20;;;5.10;;
5612;SDS011;63463;53.586;9.928;2023-06-14T03:53:22;7.33;;;5.30;;
5612;SDS011;63463;53.586;9.928;2023-06-14T03:55:50;12.20;;;5.60;;
5612;SDS011;63463;53.586;9.928;2023-06-14T03:58:18;9.83;;;5.57;;
5612;SDS011;63463;53.586;9.928;2023-06-14T04:00:47;7.87;;;5.27;;
5612;SDS011;63463;53.586;9.928;2023-06-14T04:03:13;5.23;;;4.77;;
5612;SDS011;63463;53.586;9.928;2023-06-14T04:05:48;8.20;;;5.23;;
5612;SDS011;63463;53.586;9.928;2023-06-14T04:08:23;6.47;;;4.90;;
5612;SDS011;63463;53.586;9.928;2023-06-14T04:10:53;7.17;;;5.27;;
5612;SDS011;63463;53.586;9.928;2023-06-14T04:13:20;9.80;;;5.03;;
5612;SDS011;63463;53.586;9.928;2023-06-14T04:15:51;9.10;;;5.87;;
5612;SDS011;63463;53.586;9.928;2023-06-14T04:18:17;6.90;;;4.90;;
5612;SDS011;63463;53.586;9.928;2023-06-14T04:20:46;5.50;;;4.97;;
5612;SDS011;63463;53.586;9.928;2023-06-14T04:23:16;9.07;;;5.40;;
5612;SDS011;63463;53.586;9.928;2023-06-14T04:25:52;6.17;;;5.13;;
5612;SDS011;63463;53.586;9.928;2023-06-14T04:28:28;11.13;;;6.40;;
5612;SDS011;63463;53.586;9.928;2023-06-14T04:30:55;5.30;;;4.70;;
5612;SDS011;63463;53.586;9.928;2023-06-14T04:33:22;5.50;;;5.00;;
5612;SDS011;63463;53.586;9.928;2023-06-14T04:35:50;7.70;;;5.17;;
5612;SDS011;63463;53.586;9.928;2023-06-14T04:38:21;7.47;;;5.13;;
5612;SDS011;63463;53.586;9.928;2023-06-14T04:40:50;6.30;;;4.77;;
5612;SDS011;63463;53.586;9.928;2023-06-14T04:43:24;7.97;;;5.00;;
5612;SDS011;63463;53.586;9.928;2023-06-14T04:45:53;29.17;;;4.90;;
5612;SDS011;63463;53.586;9.928;2023-06-14T04:48:22;6.10;;;4.80;;
5612;SDS011;63463;53.586;9.928;2023-06-14T04:50:49;11.83;;;6.50;;
5612;SDS011;63463;53.586;9.928;2023-06-14T04:53:19;7.20;;;5.03;;
5612;SDS011;63463;53.586;9.928;2023-06-14T04:58:47;6.70;;;4.67;;
5612;SDS011;63463;53.586;9.928;2023-06-14T05:01:16;5.17;;;4.67;;
5612;SDS011;63463;53.586;9.928;2023-06-14T05:03:48;8.73;;;4.73;;
5612;SDS011;63463;53.586;9.928;2023-06-14T05:06:20;5.33;;;4.67;;
5612;SDS011;63463;53.586;9.928;2023-06-14T05:08:51;23.50;;;5.00;;
5612;SDS011;63463;53.586;9.928;2023-06-14T05:11:20;6.17;;;4.63;;
5612;SDS011;63463;53.586;9.928;2023-06-14T05:13:49;12.40;;;4.83;;
5612;SDS011;63463;53.586;9.928;2023-06-14T05:16:16;6.63;;;5.00;;
5612;SDS011;63463;53.586;9.928;2023-06-14T05:18:50;9.03;;;5.23;;
5612;SDS011;63463;53.586;9.928;2023-06-14T05:21:21;11.40;;;4.87;;
5612;SDS011;63463;53.586;9.928;2023-06-14T05:23:47;7.23;;;4.73;;
5612;SDS011;63463;53.586;9.928;2023-06-14T05:26:18;6.47;;;4.93;;
5612;SDS011;63463;53.586;9.928;2023-06-14T05:28:45;7.87;;;5.13;;
5612;SDS011;63463;53.586;9.928;2023-06-14T05:31:21;7.50;;;4.83;;
5612;SDS011;63463;53.586;9.928;2023-06-14T05:34:07;6.10;;;4.80;;
5612;SDS011;63463;53.586;9.928;2023-06-14T05:36:39;8.20;;;4.13;;
5612;SDS011;63463;53.586;9.928;2023-06-14T05:39:05;4.50;;;4.00;;
5612;SDS011;63463;53.586;9.928;2023-06-14T05:41:37;8.60;;;4.30;;
5612;SDS011;63463;53.586;9.928;2023-06-14T05:44:09;11.20;;;4.63;;
5612;SDS011;63463;53.586;9.928;2023-06-14T05:46:50;5.60;;;4.07;;
5612;SDS011;63463;53.586;9.928;2023-06-14T05:49:18;6.73;;;4.30;;
5612;SDS011;63463;53.586;9.928;2023-06-14T05:51:50;5.87;;;4.47;;
5612;SDS011;63463;53.586;9.928;2023-06-14T05:54:19;5.53;;;4.10;;
5612;SDS011;63463;53.586;9.928;2023-06-14T05:56:45;9.00;;;4.47;;
5612;SDS011;63463;53.586;9.928;2023-06-14T05:59:11;7.23;;;4.37;;
5612;SDS011;63463;53.586;9.928;2023-06-14T06:01:40;8.07;;;4.33;;
5612;SDS011;63463;53.586;9.928;2023-06-14T06:04:17;5.00;;;4.20;;
5612;SDS011;63463;53.586;9.928;2023-06-14T06:06:49;10.50;;;4.20;;
5612;SDS011;63463;53.586;9.928;2023-06-14T06:09:22;13.87;;;4.63;;
5612;SDS011;63463;53.586;9.928;2023-06-14T06:11:51;19.10;;;4.20;;
5612;SDS011;63463;53.586;9.928;2023-06-14T06:14:23;13.13;;;4.23;;
5612;SDS011;63463;53.586;9.928;2023-06-14T06:16:49;6.90;;;3.63;;
5612;SDS011;63463;53.586;9.928;2023-06-14T06:19:15;13.90;;;4.57;;
5612;SDS011;63463;53.586;9.928;2023-06-14T06:21:42;14.77;;;3.90;;
5612;SDS011;63463;53.586;9.928;2023-06-14T06:24:14;5.17;;;3.50;;
5612;SDS011;63463;53.586;9.928;2023-06-14T06:26:46;9.37;;;3.60;;
5612;SDS011;63463;53.586;9.928;2023-06-14T06:29:15;4.83;;;3.20;;
5612;SDS011;63463;53.586;9.928;2023-06-14T06:31:47;5.67;;;3.50;;
5612;SDS011;63463;53.586;9.928;2023-06-14T06:34:25;7.00;;;3.20;;
5612;SDS011;63463;53.586;9.928;2023-06-14T06:36:53;3.70;;;3.40;;
5612;SDS011;63463;53.586;9.928;2023-06-14T06:42:32;4.90;;;3.37;;
5612;SDS011;63463;53.586;9.928;2023-06-14T06:45:10;4.00;;;3.20;;
5612;SDS011;63463;53.586;9.928;2023-06-14T06:47:41;3.37;;;2.77;;
5612;SDS011;63463;53.586;9.928;2023-06-14T06:50:24;9.33;;;2.93;;
5612;SDS011;63463;53.586;9.928;2023-06-14T06:53:00;3.00;;;2.70;;
5612;SDS011;63463;53.586;9.928;2023-06-14T06:55:28;5.00;;;2.73;;
5612;SDS011;63463;53.586;9.928;2023-06-14T06:57:54;8.23;;;2.90;;
5612;SDS011;63463;53.586;9.928;2023-06-14T07:00:24;8.80;;;2.97;;
5612;SDS011;63463;53.586;9.928;2023-06-14T07:02:50;4.83;;;3.03;;
5612;SDS011;63463;53.586;9.928;2023-06-14T07:05:20;5.20;;;2.83;;
5612;SDS011;63463;53.586;9.928;2023-06-14T07:07:46;14.43;;;3.03;;
5612;SDS011;63463;53.586;9.928;2023-06-14T07:10:17;5.20;;;2.80;;
5612;SDS011;63463;53.586;9.928;2023-06-14T07:12:44;3.50;;;3.20;;
5612;SDS011;63463;53.586;9.928;2023-06-14T07:15:10;5.70;;;3.07;;
5612;SDS011;63463;53.586;9.928;2023-06-14T07:17:36;5.73;;;3.07;;
5612;SDS011;63463;53.586;9.928;2023-06-14T07:20:03;5.40;;;2.27;;
5612;SDS011;63463;53.586;9.928;2023-06-14T07:22:39;4.23;;;2.60;;
5612;SDS011;63463;53.586;9.928;2023-06-14T07:25:08;7.47;;;3.10;;
5612;SDS011;63463;53.586;9.928;2023-06-14T07:27:37;4.80;;;3.07;;
5612;SDS011;63463;53.586;9.928;2023-06-14T07:30:03;2.27;;;2.10;;
5612;SDS011;63463;53.586;9.928;2023-06-14T07:32:29;4.80;;;2.70;;
5612;SDS011;63463;53.586;9.928;2023-06-14T07:34:55;3.60;;;2.63;;
5612;SDS011;63463;53.586;9.928;2023-06-14T07:37:21;2.60;;;2.40;;
5612;SDS011;63463;53.586;9.928;2023-06-14T07:39:47;3.93;;;2.43;;
5612;SDS011;63463;53.586;9.928;2023-06-14T07:42:13;2.83;;;2.60;;
5612;SDS011;63463;53.586;9.928;2023-06-14T07:44:39;3.17;;;2.87;;
5612;SDS011;63463;53.586;9.928;2023-06-14T07:47:05;3.80;;;2.80;;
5612;SDS011;63463;53.586;9.928;2023-06-14T07:49:33;7.23;;;4.60;;
5612;SDS011;63463;53.586;9.928;2023-06-14T07:51:59;2.80;;;2.60;;
5612;SDS011;63463;53.586;9.928;2023-06-14T07:54:25;9.43;;;2.63;;
5612;SDS011;63463;53.586;9.928;2023-06-14T07:56:52;2.80;;;2.60;;
5612;SDS011;63463;53.586;9.928;2023-06-14T07:59:18;2.87;;;2.60;;
5612;SDS011;63463;53.586;9.928;2023-06-14T08:01:44;3.13;;;2.70;;
5612;SDS011;63463;53.586;9.928;2023-06-14T08:04:12;3.77;;;1.97;;
5612;SDS011;63463;53.586;9.928;2023-06-14T08:06:38;6.47;;;3.00;;
5612;SDS011;63463;53.586;9.928;2023-06-14T08:09:09;2.60;;;2.40;;
5612;SDS011;63463;53.586;9.928;2023-06-14T08:11:35;3.97;;;3.00;;
5612;SDS011;63463;53.586;9.928;2023-06-14T08:14:01;3.00;;;2.67;;
5612;SDS011;63463;53.586;9.928;2023-06-14T08:16:28;3.83;;;2.13;;
5612;SDS011;63463;53.586;9.928;2023-06-14T08:18:55;3.07;;;2.60;;
5612;SDS011;63463;53.586;9.928;2023-06-14T08:21:21;5.57;;;2.83;;
5612;SDS011;63463;53.586;9.928;2023-06-14T08:23:47;6.20;;;2.23;;
5612;SDS011;63463;53.586;9.928;2023-06-14T08:26:13;4.13;;;2.57;;
5612;SDS011;63463;53.586;9.928;2023-06-14T08:28:39;5.93;;;2.50;;
5612;SDS011;63463;53.586;9.928;2023-06-14T08:31:05;2.77;;;2.37;;
5612;SDS011;63463;53.586;9.928;2023-06-14T09:04:07;4.23;;;2.70;;
5612;SDS011;63463;53.586;9.928;2023-06-14T09:06:34;6.90;;;3.00;;
5612;SDS011;63463;53.586;9.928;2023-06-14T09:09:01;6.27;;;2.67;;
5612;SDS011;63463;53.586;9.928;2023-06-14T09:11:29;7.17;;;3.57;;
5612;SDS011;63463;53.586;9.928;2023-06-14T09:13:58;4.13;;;2.57;;
5612;SDS011;63463;53.586;9.928;2023-06-14T09:16:26;2.87;;;2.67;;
5612;SDS011;63463;53.586;9.928;2023-06-14T09:18:52;6.50;;;2.90;;
5612;SDS011;63463;53.586;9.928;2023-06-14T09:21:19;3.93;;;2.83;;
5612;SDS011;63463;53.586;9.928;2023-06-14T09:23:47;9.00;;;2.50;;
5612;SDS011;63463;53.586;9.928;2023-06-14T09:26:14;6.20;;;2.80;;
5612;SDS011;63463;53.586;9.928;2023-06-14T09:28:41;7.60;;;3.07;;
5612;SDS011;63463;53.586;9.928;2023-06-14T09:31:07;7.00;;;2.70;;
5612;SDS011;63463;53.586;9.928;2023-06-14T09:33:34;6.28;;;2.40;;
5612;SDS011;63463;53.586;9.928;2023-06-14T09:36:00;8.70;;;2.88;;
5612;SDS011;63463;53.586;9.928;2023-06-14T09:38:28;3.85;;;2.60;;
5612;SDS011;63463;53.586;9.928;2023-06-14T09:40:58;3.65;;;2.88;;
5612;SDS011;63463;53.586;9.928;2023-06-14T09:43:24;2.97;;;2.50;;
5612;SDS011;63463;53.586;9.928;2023-06-14T09:45:52;3.28;;;2.35;;
5612;SDS011;63463;53.586;9.928;2023-06-14T09:48:21;2.95;;;2.75;;
5612;SDS011;63463;53.586;9.928;2023-06-14T09:50:47;4.32;;;2.78;;
5612;SDS011;63463;53.586;9.928;2023-06-14T09:53:15;6.97;;;2.95;;
5612;SDS011;63463;53.586;9.928;2023-06-14T09:55:43;9.52;;;3.05;;
5612;SDS011;63463;53.586;9.928;2023-06-14T09:58:11;2.97;;;2.20;;
5612;SDS011;63463;53.586;9.928;2023-06-14T10:00:39;4.40;;;2.75;;
5612;SDS011;63463;53.586;9.928;2023-06-14T10:03:11;3.97;;;2.67;;
5612;SDS011;63463;53.586;9.928;2023-06-14T10:05:38;5.00;;;2.60;;
5612;SDS011;63463;53.586;9.928;2023-06-14T10:08:08;7.65;;;2.65;;
5612;SDS011;63463;53.586;9.928;2023-06-14T10:10:35;2.33;;;2.20;;
5612;SDS011;63463;53.586;9.928;2023-06-14T10:13:01;5.80;;;2.65;;
5612;SDS011;63463;53.586;9.928;2023-06-14T10:15:46;2.38;;;2.25;;
5612;SDS011;63463;53.586;9.928;2023-06-14T10:21:36;8.35;;;2.80;;
5612;SDS011;63463;53.586;9.928;2023-06-14T10:23:37;12.13;;;3.10;;
5612;SDS011;63463;53.586;9.928;2023-06-14T10:26:06;4.67;;;2.37;;
5612;SDS011;63463;53.586;9.928;2023-06-14T10:28:32;4.28;;;3.00;;
5612;SDS011;63463;53.586;9.928;2023-06-14T10:33:32;7.88;;;2.45;;
5612;SDS011;63463;53.586;9.928;2023-06-14T10:38:44;3.70;;;2.38;;
5612;SDS011;63463;53.586;9.928;2023-06-14T10:41:10;7.88;;;2.40;;
5612;SDS011;63463;53.586;9.928;2023-06-14T10:43:36;3.00;;;2.60;;
5612;SDS011;63463;53.586;9.928;2023-06-14T10:46:15;5.32;;;2.72;;
5612;SDS011;63463;53.586;9.928;2023-06-14T10:48:42;4.65;;;2.33;;
5612;SDS011;63463;53.586;9.928;2023-06-14T10:51:18;2.63;;;2.28;;
5612;SDS011;63463;53.586;9.928;2023-06-14T10:53:45;3.30;;;2.30;;
5612;SDS011;63463;53.586;9.928;2023-06-14T10:56:29;8.32;;;2.47;;
5612;SDS011;63463;53.586;9.928;2023-06-14T10:58:58;7.13;;;2.60;;
5612;SDS011;63463;53.586;9.928;2023-06-14T11:01:31;7.80;;;2.90;;
5612;SDS011;63463;53.586;9.928;2023-06-14T11:04:00;4.22;;;2.15;;
5612;SDS011;63463;53.586;9.928;2023-06-14T11:06:36;7.50;;;2.95;;
5612;SDS011;63463;53.586;9.928;2023-06-14T11:12:10;5.38;;;2.75;;
5612;SDS011;63463;53.586;9.928;2023-06-14T11:14:41;2.30;;;2.10;;
5612;SDS011;63463;53.586;9.928;2023-06-14T11:17:17;8.32;;;2.80;;
5612;SDS011;63463;53.586;9.928;2023-06-14T11:19:43;3.25;;;2.92;;
5612;SDS011;63463;53.586;9.928;2023-06-14T11:22:10;2.45;;;2.25;;
5612;SDS011;63463;53.586;9.928;2023-06-14T11:24:36;3.97;;;2.20;;
5612;SDS011;63463;53.586;9.928;2023-06-14T11:27:03;4.35;;;2.40;;
5612;SDS011;63463;53.586;9.928;2023-06-14T11:29:31;2.75;;;2.22;;
5612;SDS011;63463;53.586;9.928;2023-06-14T11:32:00;5.82;;;2.42;;
5612;SDS011;63463;53.586;9.928;2023-06-14T11:34:26;4.03;;;2.40;;
5612;SDS011;63463;53.586;9.928;2023-06-14T11:36:53;11.60;;;2.67;;
5612;SDS011;63463;53.586;9.928;2023-06-14T11:39:23;7.55;;;2.53;;
5612;SDS011;63463;53.586;9.928;2023-06-14T11:41:54;2.33;;;2.13;;
5612;SDS011;63463;53.586;9.928;2023-06-14T11:44:20;2.45;;;2.30;;
5612;SDS011;63463;53.586;9.928;2023-06-14T11:46:47;6.00;;;2.00;;
5612;SDS011;63463;53.586;9.928;2023-06-14T11:49:15;4.97;;;2.95;;
5612;SDS011;63463;53.586;9.928;2023-06-14T11:51:42;10.00;;;2.42;;
5612;SDS011;63463;53.586;9.928;2023-06-14T11:54:10;5.32;;;2.60;;
5612;SDS011;63463;53.586;9.928;2023-06-14T11:56:36;7.30;;;2.63;;
5612;SDS011;63463;53.586;9.928;2023-06-14T11:59:03;2.88;;;2.42;;
5612;SDS011;63463;53.586;9.928;2023-06-14T12:01:30;5.38;;;2.63;;
5612;SDS011;63463;53.586;9.928;2023-06-14T12:03:58;2.40;;;2.20;;
5612;SDS011;63463;53.586;9.928;2023-06-14T12:06:29;6.47;;;2.03;;
5612;SDS011;63463;53.586;9.928;2023-06-14T12:08:58;5.25;;;2.55;;
5612;SDS011;63463;53.586;9.928;2023-06-14T12:11:33;5.20;;;2.58;;
5612;SDS011;63463;53.586;9.928;2023-06-14T12:13:59;13.52;;;2.70;;
5612;SDS011;63463;53.586;9.928;2023-06-14T12:16:30;3.92;;;2.78;;
5612;SDS011;63463;53.586;9.928;2023-06-14T12:18:59;7.75;;;2.63;;
5612;SDS011;63463;53.586;9.928;2023-06-14T12:21:26;10.27;;;2.53;;
5612;SDS011;63463;53.586;9.928;2023-06-14T12:23:54;4.30;;;2.95;;
5612;SDS011;63463;53.586;9.928;2023-06-14T12:26:20;4.47;;;1.90;;
5612;SDS011;63463;53.586;9.928;2023-06-14T12:28:47;7.53;;;2.63;;
5612;SDS011;63463;53.586;9.928;2023-06-14T12:31:14;3.35;;;2.35;;
5612;SDS011;63463;53.586;9.928;2023-06-14T12:33:42;3.97;;;2.40;;
5612;SDS011;63463;53.586;9.928;2023-06-14T12:36:10;4.93;;;2.42;;
5612;SDS011;63463;53.586;9.928;2023-06-14T12:38:36;3.95;;;2.60;;
5612;SDS011;63463;53.586;9.928;2023-06-14T12:41:03;15.05;;;3.30;;
5612;SDS011;63463;53.586;9.928;2023-06-14T12:43:29;2.67;;;2.55;;
5612;SDS011;63463;53.586;9.928;2023-06-14T12:45:55;9.32;;;2.53;;
5612;SDS011;63463;53.586;9.928;2023-06-14T12:48:21;9.75;;;2.30;;
5612;SDS011;63463;53.586;9.928;2023-06-14T12:50:47;3.17;;;2.60;;
5612;SDS011;63463;53.586;9.928;2023-06-14T12:53:13;8.52;;;2.67;;
5612;SDS011;63463;53.586;9.928;2023-06-14T12:55:40;7.82;;;2.67;;
5612;SDS011;63463;53.586;9.928;2023-06-14T12:58:06;2.53;;;2.25;;
5612;SDS011;63463;53.586;9.928;2023-06-14T13:00:32;5.38;;;2.35;;
5612;SDS011;63463;53.586;9.928;2023-06-14T13:02:58;5.75;;;2.30;;
5612;SDS011;63463;53.586;9.928;2023-06-14T13:05:24;4.07;;;2.40;;
5612;SDS011;63463;53.586;9.928;2023-06-14T13:07:52;9.73;;;2.40;;
5612;SDS011;63463;53.586;9.928;2023-06-14T13:10:20;2.40;;;2.20;;
5612;SDS011;63463;53.586;9.928;2023-06-14T13:12:46;6.97;;;2.95;;
5612;SDS011;63463;53.586;9.928;2023-06-14T13:15:13;7.50;;;2.53;;
5612;SDS011;63463;53.586;9.928;2023-06-14T13:17:40;5.82;;;2.88;;
5612;SDS011;63463;53.586;9.928;2023-06-14T13:20:07;4.63;;;2.30;;
5612;SDS011;63463;53.586;9.928;2023-06-14T13:22:33;2.65;;;2.45;;
5612;SDS011;63463;53.586;9.928;2023-06-14T13:25:00;4.95;;;2.60;;
5612;SDS011;63463;53.586;9.928;2023-06-14T13:27:30;4.30;;;2.40;;
5612;SDS011;63463;53.586;9.928;2023-06-14T13:29:59;3.72;;;2.65;;
5612;SDS011;63463;53.586;9.928;2023-06-14T13:32:30;11.25;;;2.95;;
5612;SDS011;63463;53.586;9.928;2023-06-14T13:34:56;3.05;;;2.53;;
5612;SDS011;63463;53.586;9.928;2023-06-14T13:37:22;4.80;;;1.98;;
5612;SDS011;63463;53.586;9.928;2023-06-14T13:39:49;8.73;;;3.03;;
5612;SDS011;63463;53.586;9.928;2023-06-14T13:42:15;4.07;;;2.47;;
5612;SDS011;63463;53.586;9.928;2023-06-14T13:44:42;4.18;;;2.67;;
5612;SDS011;63463;53.586;9.928;2023-06-14T13:47:08;2.10;;;2.00;;
5612;SDS011;63463;53.586;9.928;2023-06-14T13:49:35;10.40;;;3.83;;
5612;SDS011;63463;53.586;9.928;2023-06-14T13:52:02;4.63;;;2.05;;
5612;SDS011;63463;53.586;9.928;2023-06-14T13:54:31;12.60;;;2.03;;
5612;SDS011;63463;53.586;9.928;2023-06-14T13:56:57;3.63;;;2.25;;
5612;SDS011;63463;53.586;9.928;2023-06-14T13:59:27;6.25;;;2.20;;
5612;SDS011;63463;53.586;9.928;2023-06-14T14:01:53;24.08;;;2.35;;
5612;SDS011;63463;53.586;9.928;2023-06-14T14:04:19;2.20;;;1.88;;
5612;SDS011;63463;53.586;9.928;2023-06-14T14:06:46;1.98;;;1.83;;
5612;SDS011;63463;53.586;9.928;2023-06-14T14:09:12;2.20;;;2.00;;
5612;SDS011;63463;53.586;9.928;2023-06-14T14:11:42;6.38;;;2.30;;
5612;SDS011;63463;53.586;9.928;2023-06-14T14:14:14;1.73;;;1.63;;
5612;SDS011;63463;53.586;9.928;2023-06-14T14:16:46;51.03;;;3.33;;
5612;SDS011;63463;53.586;9.928;2023-06-14T14:19:29;8.23;;;2.05;;
5612;SDS011;63463;53.586;9.928;2023-06-14T14:22:08;2.20;;;1.95;;
5612;SDS011;63463;53.586;9.928;2023-06-14T14:24:34;8.38;;;1.73;;
5612;SDS011;63463;53.586;9.928;2023-06-14T14:27:05;8.30;;;2.00;;
5612;SDS011;63463;53.586;9.928;2023-06-14T14:29:32;1.60;;;1.50;;
5612;SDS011;63463;53.586;9.928;2023-06-14T14:32:00;2.63;;;2.35;;
5612;SDS011;63463;53.586;9.928;2023-06-14T14:34:28;2.33;;;2.13;;
5612;SDS011;63463;53.586;9.928;2023-06-14T14:36:54;2.28;;;1.92;;
5612;SDS011;63463;53.586;9.928;2023-06-14T14:39:20;9.35;;;2.15;;
5612;SDS011;63463;53.586;9.928;2023-06-14T14:41:46;5.65;;;2.30;;
5612;SDS011;63463;53.586;9.928;2023-06-14T14:44:13;6.07;;;2.22;;
5612;SDS011;63463;53.586;9.928;2023-06-14T14:46:39;9.02;;;2.60;;
5612;SDS011;63463;53.586;9.928;2023-06-14T14:49:06;2.15;;;2.00;;
5612;SDS011;63463;53.586;9.928;2023-06-14T14:51:33;2.30;;;2.10;;
5612;SDS011;63463;53.586;9.928;2023-06-14T14:53:59;7.10;;;2.60;;
5612;SDS011;63463;53.586;9.928;2023-06-14T14:56:27;3.65;;;2.40;;
5612;SDS011;63463;53.586;9.928;2023-06-14T14:58:53;3.25;;;2.38;;
5612;SDS011;63463;53.586;9.928;2023-06-14T15:01:19;8.40;;;2.58;;
5612;SDS011;63463;53.586;9.928;2023-06-14T15:03:46;4.88;;;2.30;;
5612;SDS011;63463;53.586;9.928;2023-06-14T15:06:12;5.07;;;2.17;;
5612;SDS011;63463;53.586;9.928;2023-06-14T15:08:42;7.78;;;2.58;;
5612;SDS011;63463;53.586;9.928;2023-06-14T15:11:10;4.35;;;2.10;;
5612;SDS011;63463;53.586;9.928;2023-06-14T15:13:36;9.48;;;2.65;;
5612;SDS011;63463;53.586;9.928;2023-06-14T15:16:02;7.10;;;2.45;;
5612;SDS011;63463;53.586;9.928;2023-06-14T15:18:30;5.57;;;2.35;;
5612;SDS011;63463;53.586;9.928;2023-06-14T15:20:57;4.80;;;2.38;;
5612;SDS011;63463;53.586;9.928;2023-06-14T15:23:26;4.72;;;2.60;;
5612;SDS011;63463;53.586;9.928;2023-06-14T15:25:52;5.40;;;2.80;;
5612;SDS011;63463;53.586;9.928;2023-06-14T15:28:21;4.00;;;2.70;;
5612;SDS011;63463;53.586;9.928;2023-06-14T15:30:50;6.23;;;2.80;;
5612;SDS011;63463;53.586;9.928;2023-06-14T15:33:17;6.30;;;3.07;;
5612;SDS011;63463;53.586;9.928;2023-06-14T15:35:43;9.60;;;2.30;;
5612;SDS011;63463;53.586;9.928;2023-06-14T15:38:16;3.73;;;2.87;;
5612;SDS011;63463;53.586;9.928;2023-06-14T15:40:43;4.83;;;2.33;;
5612;SDS011;63463;53.586;9.928;2023-06-14T15:43:09;24.10;;;2.30;;
5612;SDS011;63463;53.586;9.928;2023-06-14T15:45:35;2.43;;;2.20;;
5612;SDS011;63463;53.586;9.928;2023-06-14T15:48:02;2.80;;;2.23;;
5612;SDS011;63463;53.586;9.928;2023-06-14T15:50:28;4.53;;;2.53;;
5612;SDS011;63463;53.586;9.928;2023-06-14T15:52:55;5.67;;;2.40;;
5612;SDS011;63463;53.586;9.928;2023-06-14T15:55:23;4.20;;;2.40;;
5612;SDS011;63463;53.586;9.928;2023-06-14T15:57:49;2.47;;;2.27;;
5612;SDS011;63463;53.586;9.928;2023-06-14T16:00:15;4.90;;;2.77;;
5612;SDS011;63463;53.586;9.928;2023-06-14T16:02:42;4.90;;;2.70;;
5612;SDS011;63463;53.586;9.928;2023-06-14T16:05:11;7.47;;;2.93;;